Terminal Aerodrome Forecast
Issued by NWS

Home | Current Version | Previous Version | Text Only | Print | Product List | Glossary On
Versions: 1 2 3 4 5 6 7 8 9 10 11 12 13 14 15 16 17 18 19 20 21
000
FTUS43 KMPX 010500
TAFRNH
TAF
KRNH 010520Z 0106/0206 VRB03KT 6SM -SHRA BR SCT020 BKN090
     FM010900 24005KT 4SM -SHRA BR SCT010 OVC020
     FM011400 28010KT 6SM BR BKN020
     FM011700 30011G19KT P6SM BKN040
     FM020000 28006KT P6SM SCT200=

USA.gov is the U.S. government's official web portal to all federal, state and local government web resources and services.